Open Full Screen Window  High Contrast Mode
Wind Gusting 00 knots
06
July 20, 2018 4:50 AM EDT
Weather Information
Wind Direction
  170 °
Wind Speed
  06 kt (7 mph)
Wind Gust
  00 kt (0 mph)
Altimeter
29.97 in
Visibility
10 SM
Temperature
22° C
72° F
Dewpoint
18° C
64° F
Humidity
78%
1hr Rain Fall
00.00 in.
24hr Rain Fall
00.00 in.
Sky Condition
Clear
VFR

METAR KSYM 200850Z AUTO 17006KT 10SM CLR 22/18 A2997 RMK AO2

FAA Disclaimer: The data displayed is for advisory purposes only and is not to be used for flight planning or operations.